Terminal Aerodrome Forecast
Issued by NWS

Home | Current Version | Previous Version | Text Only | Print | Product List | Glossary On
Versions: 1 2 3 4 5 6 7 8 9 10 11 12 13 14 15 16 17 18 19 20 21 22 23 24 25 26 27 28 29 30 31 32 33 34 35 36 37 38 39 40 41 42 43 44 45 46 47 48 49 50
000
FTUS43 KMKX 220848 AAB
TAFENW
TAF AMD
KENW 220848Z 2209/2306 VRB03KT 1/4SM FG OVC005
      TEMPO 2211/2215 1 1/2SM BR OVC008
     FM221500 36004KT 2SM BR OVC008
     FM221800 01005KT 5SM BR OVC010
     FM222300 01005KT 5SM BR OVC020
     FM230200 35006KT 5SM BR BKN015=

USA.gov is the U.S. government's official web portal to all federal, state and local government web resources and services.